sensor_id;sensor_type;location;lat;lon;timestamp;pressure;altitude;pressure_sealevel;temperature;humidity
57948;BME280;43754;56.992;24.292;2023-04-25T00:01:46;100380.50;;;12.14;82.91
57948;BME280;43754;56.992;24.292;2023-04-25T00:04:18;100378.41;;;12.09;82.59
57948;BME280;43754;56.992;24.292;2023-04-25T00:06:50;100374.88;;;12.02;82.23
57948;BME280;43754;56.992;24.292;2023-04-25T00:09:25;100367.19;;;11.99;81.62
57948;BME280;43754;56.992;24.292;2023-04-25T00:11:58;100372.13;;;11.95;82.62
57948;BME280;43754;56.992;24.292;2023-04-25T00:14:30;100365.91;;;11.95;80.78
57948;BME280;43754;56.992;24.292;2023-04-25T00:17:05;100367.16;;;11.92;82.65
57948;BME280;43754;56.992;24.292;2023-04-25T00:19:37;100370.00;;;11.84;81.36
57948;BME280;43754;56.992;24.292;2023-04-25T00:22:09;100362.72;;;11.78;81.75
57948;BME280;43754;56.992;24.292;2023-04-25T00:24:43;100360.44;;;11.75;82.41
57948;BME280;43754;56.992;24.292;2023-04-25T00:27:15;100364.69;;;11.70;81.43
57948;BME280;43754;56.992;24.292;2023-04-25T00:29:47;100363.44;;;11.66;82.51
57948;BME280;43754;56.992;24.292;2023-04-25T00:32:19;100365.84;;;11.54;84.01
57948;BME280;43754;56.992;24.292;2023-04-25T00:34:51;100363.47;;;11.44;84.05
57948;BME280;43754;56.992;24.292;2023-04-25T00:37:23;100358.25;;;11.36;84.35
57948;BME280;43754;56.992;24.292;2023-04-25T00:39:58;100356.28;;;11.24;84.24
57948;BME280;43754;56.992;24.292;2023-04-25T00:42:30;100353.75;;;11.16;84.79
57948;BME280;43754;56.992;24.292;2023-04-25T00:45:05;100351.59;;;11.04;85.24
57948;BME280;43754;56.992;24.292;2023-04-25T00:47:37;100351.97;;;11.01;85.88
57948;BME280;43754;56.992;24.292;2023-04-25T00:50:10;100359.75;;;10.96;86.56
57948;BME280;43754;56.992;24.292;2023-04-25T00:52:43;100355.81;;;10.92;87.88
57948;BME280;43754;56.992;24.292;2023-04-25T00:55:17;100358.63;;;10.84;88.94
57948;BME280;43754;56.992;24.292;2023-04-25T00:57:50;100357.25;;;10.74;88.61
57948;BME280;43754;56.992;24.292;2023-04-25T01:00:22;100356.19;;;10.68;89.19
57948;BME280;43754;56.992;24.292;2023-04-25T01:02:54;100350.94;;;10.60;89.71
57948;BME280;43754;56.992;24.292;2023-04-25T01:05:26;100349.00;;;10.54;90.52
57948;BME280;43754;56.992;24.292;2023-04-25T01:07:58;100353.06;;;10.50;91.15
57948;BME280;43754;56.992;24.292;2023-04-25T01:10:32;100344.16;;;10.43;89.44
57948;BME280;43754;56.992;24.292;2023-04-25T01:13:04;100354.19;;;10.41;89.20
57948;BME280;43754;56.992;24.292;2023-04-25T01:15:36;100352.75;;;10.38;89.53
57948;BME280;43754;56.992;24.292;2023-04-25T01:18:10;100351.63;;;10.33;89.21
57948;BME280;43754;56.992;24.292;2023-04-25T01:20:43;100360.22;;;10.28;88.87
57948;BME280;43754;56.992;24.292;2023-04-25T01:23:17;100347.41;;;10.24;88.74
57948;BME280;43754;56.992;24.292;2023-04-25T01:25:50;100344.09;;;10.22;87.82
57948;BME280;43754;56.992;24.292;2023-04-25T01:28:22;100350.19;;;10.15;88.03
57948;BME280;43754;56.992;24.292;2023-04-25T01:30:55;100351.75;;;10.10;88.84
57948;BME280;43754;56.992;24.292;2023-04-25T01:33:28;100364.84;;;10.05;89.77
57948;BME280;43754;56.992;24.292;2023-04-25T01:36:00;100353.88;;;10.00;90.53
57948;BME280;43754;56.992;24.292;2023-04-25T01:38:34;100346.09;;;9.90;92.07
57948;BME280;43754;56.992;24.292;2023-04-25T01:41:07;100351.56;;;9.82;92.75
57948;BME280;43754;56.992;24.292;2023-04-25T01:43:39;100356.28;;;9.80;93.56
57948;BME280;43754;56.992;24.292;2023-04-25T01:46:12;100348.13;;;9.74;94.44
57948;BME280;43754;56.992;24.292;2023-04-25T01:48:44;100341.19;;;9.64;93.57
57948;BME280;43754;56.992;24.292;2023-04-25T01:51:16;100334.38;;;9.62;94.63
57948;BME280;43754;56.992;24.292;2023-04-25T01:53:50;100333.75;;;9.60;94.31
57948;BME280;43754;56.992;24.292;2023-04-25T01:56:23;100338.16;;;9.53;94.23
57948;BME280;43754;56.992;24.292;2023-04-25T01:58:55;100336.84;;;9.49;94.60
57948;BME280;43754;56.992;24.292;2023-04-25T02:01:56;100333.53;;;9.47;93.86
57948;BME280;43754;56.992;24.292;2023-04-25T02:04:34;100337.59;;;9.43;94.23
57948;BME280;43754;56.992;24.292;2023-04-25T02:07:07;100335.25;;;9.40;93.24
57948;BME280;43754;56.992;24.292;2023-04-25T02:09:55;100335.00;;;9.35;93.19
57948;BME280;43754;56.992;24.292;2023-04-25T02:12:28;100333.50;;;9.32;91.28
57948;BME280;43754;56.992;24.292;2023-04-25T02:15:06;100342.75;;;9.30;92.50
57948;BME280;43754;56.992;24.292;2023-04-25T02:17:48;100335.88;;;9.27;90.66
57948;BME280;43754;56.992;24.292;2023-04-25T02:20:22;100332.56;;;9.25;89.90
57948;BME280;43754;56.992;24.292;2023-04-25T02:22:54;100339.13;;;9.22;90.84
57948;BME280;43754;56.992;24.292;2023-04-25T02:25:27;100332.28;;;9.20;92.14
57948;BME280;43754;56.992;24.292;2023-04-25T02:28:00;100329.97;;;9.17;92.64
57948;BME280;43754;56.992;24.292;2023-04-25T02:30:33;100327.00;;;9.12;92.55
57948;BME280;43754;56.992;24.292;2023-04-25T02:33:09;100326.38;;;9.10;93.23
57948;BME280;43754;56.992;24.292;2023-04-25T02:35:42;100329.75;;;9.04;93.80
57948;BME280;43754;56.992;24.292;2023-04-25T02:38:14;100328.44;;;9.00;93.23
57948;BME280;43754;56.992;24.292;2023-04-25T02:40:47;100325.31;;;8.96;93.41
57948;BME280;43754;56.992;24.292;2023-04-25T02:43:19;100327.69;;;8.91;94.02
57948;BME280;43754;56.992;24.292;2023-04-25T02:45:52;100332.38;;;8.89;95.04
57948;BME280;43754;56.992;24.292;2023-04-25T02:48:24;100327.38;;;8.86;95.59
57948;BME280;43754;56.992;24.292;2023-04-25T02:50:56;100329.22;;;8.86;95.16
57948;BME280;43754;56.992;24.292;2023-04-25T02:53:28;100329.41;;;8.84;94.88
57948;BME280;43754;56.992;24.292;2023-04-25T02:56:02;100329.41;;;8.84;94.78
57948;BME280;43754;56.992;24.292;2023-04-25T02:58:34;100325.06;;;8.83;92.97
57948;BME280;43754;56.992;24.292;2023-04-25T03:01:06;100331.34;;;8.90;93.39
57948;BME280;43754;56.992;24.292;2023-04-25T03:03:38;100329.69;;;8.89;92.17
57948;BME280;43754;56.992;24.292;2023-04-25T03:06:10;100323.47;;;8.97;91.77
57948;BME280;43754;56.992;24.292;2023-04-25T03:08:42;100325.41;;;9.03;91.67
57948;BME280;43754;56.992;24.292;2023-04-25T03:11:16;100315.00;;;9.08;91.34
57948;BME280;43754;56.992;24.292;2023-04-25T03:13:48;100318.81;;;9.13;91.32
57948;BME280;43754;56.992;24.292;2023-04-25T03:16:21;100319.44;;;9.15;91.11
57948;BME280;43754;56.992;24.292;2023-04-25T03:18:54;100324.09;;;9.21;91.60
57948;BME280;43754;56.992;24.292;2023-04-25T03:21:26;100327.41;;;9.23;90.92
57948;BME280;43754;56.992;24.292;2023-04-25T03:23:58;100322.50;;;9.27;91.97
57948;BME280;43754;56.992;24.292;2023-04-25T03:26:32;100323.47;;;9.34;90.21
57948;BME280;43754;56.992;24.292;2023-04-25T03:29:04;100317.22;;;9.42;90.38
57948;BME280;43754;56.992;24.292;2023-04-25T03:31:36;100312.97;;;9.47;90.59
57948;BME280;43754;56.992;24.292;2023-04-25T03:34:09;100312.22;;;9.53;87.69
57948;BME280;43754;56.992;24.292;2023-04-25T03:36:40;100310.75;;;9.65;89.44
57948;BME280;43754;56.992;24.292;2023-04-25T03:39:13;100305.50;;;9.72;91.27
57948;BME280;43754;56.992;24.292;2023-04-25T03:41:52;100307.34;;;9.86;85.47
57948;BME280;43754;56.992;24.292;2023-04-25T03:44:24;100307.41;;;10.07;85.62
57948;BME280;43754;56.992;24.292;2023-04-25T03:46:57;100307.44;;;10.22;86.61
57948;BME280;43754;56.992;24.292;2023-04-25T03:49:29;100315.41;;;10.37;83.79
57948;BME280;43754;56.992;24.292;2023-04-25T03:52:04;100315.38;;;10.51;83.61
57948;BME280;43754;56.992;24.292;2023-04-25T03:54:44;100317.00;;;10.67;82.39
57948;BME280;43754;56.992;24.292;2023-04-25T03:57:24;100316.56;;;10.85;80.28
57948;BME280;43754;56.992;24.292;2023-04-25T03:59:57;100314.19;;;10.96;80.88
57948;BME280;43754;56.992;24.292;2023-04-25T04:02:31;100315.56;;;11.14;77.75
57948;BME280;43754;56.992;24.292;2023-04-25T04:05:05;100314.06;;;11.32;76.08
57948;BME280;43754;56.992;24.292;2023-04-25T04:07:41;100309.63;;;11.46;76.27
57948;BME280;43754;56.992;24.292;2023-04-25T04:10:15;100311.97;;;11.56;74.98
57948;BME280;43754;56.992;24.292;2023-04-25T04:12:49;100319.47;;;11.67;73.59
57948;BME280;43754;56.992;24.292;2023-04-25T04:15:21;100318.31;;;11.76;73.83
57948;BME280;43754;56.992;24.292;2023-04-25T04:17:54;100322.50;;;11.85;72.53
57948;BME280;43754;56.992;24.292;2023-04-25T04:20:26;100324.19;;;11.92;72.25
57948;BME280;43754;56.992;24.292;2023-04-25T04:22:58;100324.44;;;11.97;71.64
57948;BME280;43754;56.992;24.292;2023-04-25T04:25:31;100326.13;;;12.05;71.70
57948;BME280;43754;56.992;24.292;2023-04-25T04:28:16;100327.78;;;12.13;70.50
57948;BME280;43754;56.992;24.292;2023-04-25T04:31:20;100328.88;;;12.18;70.52
57948;BME280;43754;56.992;24.292;2023-04-25T04:33:53;100329.91;;;12.24;71.35
57948;BME280;43754;56.992;24.292;2023-04-25T04:36:25;100324.34;;;12.32;71.07
57948;BME280;43754;56.992;24.292;2023-04-25T04:39:00;100323.56;;;12.38;69.71
57948;BME280;43754;56.992;24.292;2023-04-25T04:41:40;100323.38;;;12.46;71.32
57948;BME280;43754;56.992;24.292;2023-04-25T04:44:17;100309.94;;;12.53;69.15
57948;BME280;43754;56.992;24.292;2023-04-25T04:47:08;100320.31;;;12.62;69.24
57948;BME280;43754;56.992;24.292;2023-04-25T04:49:57;100313.06;;;12.69;68.99
57948;BME280;43754;56.992;24.292;2023-04-25T04:53:04;100302.34;;;12.76;68.44
57948;BME280;43754;56.992;24.292;2023-04-25T04:55:49;100321.19;;;12.82;67.51
57948;BME280;43754;56.992;24.292;2023-04-25T04:58:44;100320.38;;;12.88;67.38
57948;BME280;43754;56.992;24.292;2023-04-25T05:01:37;100318.50;;;12.96;67.28
57948;BME280;43754;56.992;24.292;2023-04-25T05:04:18;100311.25;;;13.03;67.83
57948;BME280;43754;56.992;24.292;2023-04-25T05:07:02;100311.28;;;13.09;67.64
57948;BME280;43754;56.992;24.292;2023-04-25T05:09:54;100318.78;;;13.14;66.99
57948;BME280;43754;56.992;24.292;2023-04-25T05:12:43;100318.56;;;13.22;68.00
57948;BME280;43754;56.992;24.292;2023-04-25T05:15:28;100312.97;;;13.30;67.61
57948;BME280;43754;56.992;24.292;2023-04-25T05:18:17;100305.94;;;13.35;66.76
57948;BME280;43754;56.992;24.292;2023-04-25T05:21:11;100314.19;;;13.41;66.52
57948;BME280;43754;56.992;24.292;2023-04-25T05:24:06;100305.09;;;13.48;65.56
57948;BME280;43754;56.992;24.292;2023-04-25T05:27:16;100305.28;;;13.60;64.90
57948;BME280;43754;56.992;24.292;2023-04-25T05:30:11;100302.75;;;13.71;64.95
57948;BME280;43754;56.992;24.292;2023-04-25T05:33:02;100308.31;;;13.83;64.00
57948;BME280;43754;56.992;24.292;2023-04-25T05:35:34;100307.25;;;13.97;64.00
57948;BME280;43754;56.992;24.292;2023-04-25T05:38:06;100297.47;;;14.09;63.58
57948;BME280;43754;56.992;24.292;2023-04-25T05:40:58;100300.69;;;14.24;63.27
57948;BME280;43754;56.992;24.292;2023-04-25T05:43:51;100303.75;;;14.41;62.67
57948;BME280;43754;56.992;24.292;2023-04-25T05:46:41;100295.59;;;14.54;62.21
57948;BME280;43754;56.992;24.292;2023-04-25T05:49:22;100309.41;;;14.71;62.03
57948;BME280;43754;56.992;24.292;2023-04-25T05:52:06;100309.72;;;14.88;60.99
57948;BME280;43754;56.992;24.292;2023-04-25T05:54:49;100298.00;;;15.00;61.46
57948;BME280;43754;56.992;24.292;2023-04-25T05:57:22;100303.50;;;15.12;60.00
57948;BME280;43754;56.992;24.292;2023-04-25T05:59:54;100308.25;;;15.16;59.38
57948;BME280;43754;56.992;24.292;2023-04-25T06:02:33;100301.31;;;15.27;59.10
57948;BME280;43754;56.992;24.292;2023-04-25T06:05:05;100300.66;;;15.32;59.84
57948;BME280;43754;56.992;24.292;2023-04-25T06:07:38;100296.38;;;15.42;58.92
57948;BME280;43754;56.992;24.292;2023-04-25T06:10:10;100299.84;;;15.49;57.96
57948;BME280;43754;56.992;24.292;2023-04-25T06:12:42;100291.53;;;15.94;57.71
57948;BME280;43754;56.992;24.292;2023-04-25T06:15:15;100292.19;;;16.55;55.34
57948;BME280;43754;56.992;24.292;2023-04-25T06:18:01;100283.88;;;17.10;54.06
57948;BME280;43754;56.992;24.292;2023-04-25T06:20:33;100288.59;;;17.49;53.15
57948;BME280;43754;56.992;24.292;2023-04-25T06:23:05;100293.47;;;17.71;52.45
57948;BME280;43754;56.992;24.292;2023-04-25T06:25:55;100283.06;;;17.79;52.35
57948;BME280;43754;56.992;24.292;2023-04-25T06:28:29;100283.78;;;17.98;52.16
57948;BME280;43754;56.992;24.292;2023-04-25T06:31:01;100278.75;;;18.18;51.27
57948;BME280;43754;56.992;24.292;2023-04-25T06:33:35;100286.81;;;18.42;49.71
57948;BME280;43754;56.992;24.292;2023-04-25T06:36:08;100287.47;;;18.60;49.73
57948;BME280;43754;56.992;24.292;2023-04-25T06:38:41;100284.94;;;18.70;49.60
57948;BME280;43754;56.992;24.292;2023-04-25T06:41:13;100287.50;;;18.77;48.82
57948;BME280;43754;56.992;24.292;2023-04-25T06:43:45;100284.22;;;18.92;48.50
57948;BME280;43754;56.992;24.292;2023-04-25T06:46:20;100285.38;;;19.12;48.08
57948;BME280;43754;56.992;24.292;2023-04-25T06:48:55;100287.44;;;19.22;47.63
57948;BME280;43754;56.992;24.292;2023-04-25T06:51:27;100288.03;;;19.24;47.66
57948;BME280;43754;56.992;24.292;2023-04-25T06:54:02;100281.50;;;19.42;47.12
57948;BME280;43754;56.992;24.292;2023-04-25T06:56:44;100280.78;;;19.46;47.71
57948;BME280;43754;56.992;24.292;2023-04-25T06:59:18;100287.22;;;19.40;47.60
57948;BME280;43754;56.992;24.292;2023-04-25T07:01:51;100276.41;;;19.62;48.01
57948;BME280;43754;56.992;24.292;2023-04-25T07:04:27;100280.91;;;19.73;46.86
57948;BME280;43754;56.992;24.292;2023-04-25T07:07:02;100276.34;;;19.95;45.98
57948;BME280;43754;56.992;24.292;2023-04-25T07:09:45;100275.16;;;20.13;45.85
57948;BME280;43754;56.992;24.292;2023-04-25T07:12:17;100276.44;;;20.27;46.08
57948;BME280;43754;56.992;24.292;2023-04-25T07:14:50;100282.00;;;20.37;43.79
57948;BME280;43754;56.992;24.292;2023-04-25T07:17:22;100279.63;;;20.41;43.45
57948;BME280;43754;56.992;24.292;2023-04-25T07:19:56;100280.00;;;20.49;43.55
57948;BME280;43754;56.992;24.292;2023-04-25T07:22:28;100277.41;;;20.38;42.33
57948;BME280;43754;56.992;24.292;2023-04-25T07:25:00;100277.38;;;20.33;42.28
57948;BME280;43754;56.992;24.292;2023-04-25T07:27:34;100281.22;;;20.37;43.19
57948;BME280;43754;56.992;24.292;2023-04-25T07:30:17;100281.94;;;20.54;43.30
57948;BME280;43754;56.992;24.292;2023-04-25T07:32:49;100276.06;;;20.67;42.14
57948;BME280;43754;56.992;24.292;2023-04-25T07:35:23;100269.63;;;20.73;42.02
57948;BME280;43754;56.992;24.292;2023-04-25T07:37:56;100273.88;;;20.96;41.86
57948;BME280;43754;56.992;24.292;2023-04-25T07:40:28;100274.69;;;20.64;41.59
57948;BME280;43754;56.992;24.292;2023-04-25T07:43:06;100274.03;;;20.52;40.95
57948;BME280;43754;56.992;24.292;2023-04-25T07:45:56;100280.03;;;20.54;40.58
57948;BME280;43754;56.992;24.292;2023-04-25T07:48:31;100287.72;;;20.62;40.63
57948;BME280;43754;56.992;24.292;2023-04-25T07:51:04;100277.31;;;20.54;40.60
57948;BME280;43754;56.992;24.292;2023-04-25T07:53:39;100277.66;;;20.58;40.76
57948;BME280;43754;56.992;24.292;2023-04-25T07:56:16;100288.25;;;20.59;40.49
57948;BME280;43754;56.992;24.292;2023-04-25T07:58:52;100282.97;;;20.75;39.69
57948;BME280;43754;56.992;24.292;2023-04-25T08:01:25;100274.69;;;20.91;39.62
57948;BME280;43754;56.992;24.292;2023-04-25T08:04:02;100260.84;;;20.98;39.13
57948;BME280;43754;56.992;24.292;2023-04-25T08:06:59;100284.59;;;20.71;39.10
57948;BME280;43754;56.992;24.292;2023-04-25T08:09:35;100274.13;;;20.62;38.66
57948;BME280;43754;56.992;24.292;2023-04-25T08:12:12;100282.72;;;20.76;39.35
57948;BME280;43754;56.992;24.292;2023-04-25T08:14:44;100270.00;;;21.14;38.81
57948;BME280;43754;56.992;24.292;2023-04-25T08:17:17;100263.47;;;21.15;37.68
57948;BME280;43754;56.992;24.292;2023-04-25T08:19:49;100271.44;;;20.94;37.52
57948;BME280;43754;56.992;24.292;2023-04-25T08:22:30;100268.53;;;21.06;37.85
57948;BME280;43754;56.992;24.292;2023-04-25T08:25:18;100263.81;;;21.23;38.08
57948;BME280;43754;56.992;24.292;2023-04-25T08:27:50;100263.66;;;21.40;37.47
57948;BME280;43754;56.992;24.292;2023-04-25T08:30:25;100272.72;;;21.50;37.66
57948;BME280;43754;56.992;24.292;2023-04-25T08:32:58;100271.53;;;21.36;37.71
57948;BME280;43754;56.992;24.292;2023-04-25T08:35:49;100278.69;;;21.47;36.36
57948;BME280;43754;56.992;24.292;2023-04-25T08:38:22;100279.34;;;21.23;34.51
57948;BME280;43754;56.992;24.292;2023-04-25T08:40:56;100277.97;;;21.20;34.77
57948;BME280;43754;56.992;24.292;2023-04-25T08:43:30;100271.25;;;21.38;35.40
57948;BME280;43754;56.992;24.292;2023-04-25T08:46:03;100285.81;;;21.48;34.93
57948;BME280;43754;56.992;24.292;2023-04-25T08:49:00;100284.09;;;21.42;35.12
57948;BME280;43754;56.992;24.292;2023-04-25T08:51:32;100276.56;;;21.54;35.39
57948;BME280;43754;56.992;24.292;2023-04-25T08:54:11;100282.09;;;21.65;34.94
57948;BME280;43754;56.992;24.292;2023-04-25T08:56:48;100278.50;;;21.59;35.73
57948;BME280;43754;56.992;24.292;2023-04-25T08:59:21;100281.34;;;21.74;34.65
57948;BME280;43754;56.992;24.292;2023-04-25T09:01:55;100281.34;;;21.74;35.47
57948;BME280;43754;56.992;24.292;2023-04-25T09:04:27;100278.09;;;21.82;35.24
57948;BME280;43754;56.992;24.292;2023-04-25T09:07:02;100279.25;;;21.91;35.33
57948;BME280;43754;56.992;24.292;2023-04-25T09:09:35;100269.22;;;21.60;34.27
57948;BME280;43754;56.992;24.292;2023-04-25T09:12:08;100271.97;;;21.60;35.52
57948;BME280;43754;56.992;24.292;2023-04-25T09:14:40;100273.22;;;21.89;34.96
57948;BME280;43754;56.992;24.292;2023-04-25T09:17:24;100269.25;;;22.07;34.94
57948;BME280;43754;56.992;24.292;2023-04-25T09:20:06;100265.69;;;22.07;34.51
57948;BME280;43754;56.992;24.292;2023-04-25T09:22:39;100266.50;;;22.07;34.09
57948;BME280;43754;56.992;24.292;2023-04-25T09:25:13;100258.31;;;22.07;33.24
57948;BME280;43754;56.992;24.292;2023-04-25T09:27:49;100253.97;;;22.11;32.93
57948;BME280;43754;56.992;24.292;2023-04-25T09:30:30;100252.34;;;22.15;32.69
57948;BME280;43754;56.992;24.292;2023-04-25T09:33:13;100244.47;;;22.24;32.80
57948;BME280;43754;56.992;24.292;2023-04-25T09:35:50;100248.84;;;22.35;32.59
57948;BME280;43754;56.992;24.292;2023-04-25T09:38:40;100269.09;;;22.44;33.34
57948;BME280;43754;56.992;24.292;2023-04-25T09:41:24;100248.66;;;22.62;32.73
57948;BME280;43754;56.992;24.292;2023-04-25T09:43:59;100263.72;;;22.69;32.71
57948;BME280;43754;56.992;24.292;2023-04-25T09:46:38;100253.31;;;22.76;34.01
57948;BME280;43754;56.992;24.292;2023-04-25T09:49:16;100252.78;;;22.84;32.79
57948;BME280;43754;56.992;24.292;2023-04-25T09:52:09;100255.53;;;22.74;33.28
57948;BME280;43754;56.992;24.292;2023-04-25T09:54:52;100254.31;;;22.40;33.51
57948;BME280;43754;56.992;24.292;2023-04-25T09:57:35;100244.19;;;22.20;33.36
57948;BME280;43754;56.992;24.292;2023-04-25T10:00:12;100261.72;;;21.82;34.62
57948;BME280;43754;56.992;24.292;2023-04-25T10:02:46;100254.63;;;21.81;34.47
57948;BME280;43754;56.992;24.292;2023-04-25T10:05:49;100250.41;;;22.11;34.56
57948;BME280;43754;56.992;24.292;2023-04-25T10:08:24;100257.88;;;22.40;34.16
57948;BME280;43754;56.992;24.292;2023-04-25T10:11:00;100252.44;;;22.56;33.59
57948;BME280;43754;56.992;24.292;2023-04-25T10:13:35;100251.63;;;22.60;33.78
57948;BME280;43754;56.992;24.292;2023-04-25T10:16:08;100256.81;;;22.52;34.11
57948;BME280;43754;56.992;24.292;2023-04-25T10:18:40;100253.78;;;22.43;32.72
57948;BME280;43754;56.992;24.292;2023-04-25T10:21:12;100245.72;;;22.01;32.79
57948;BME280;43754;56.992;24.292;2023-04-25T10:23:46;100238.09;;;21.98;33.33
57948;BME280;43754;56.992;24.292;2023-04-25T10:26:19;100246.69;;;22.37;33.18
57948;BME280;43754;56.992;24.292;2023-04-25T10:29:00;100239.09;;;22.79;32.04
57948;BME280;43754;56.992;24.292;2023-04-25T10:31:44;100234.69;;;22.63;31.39
57948;BME280;43754;56.992;24.292;2023-04-25T10:34:17;100240.09;;;22.38;32.64
57948;BME280;43754;56.992;24.292;2023-04-25T10:36:50;100234.72;;;22.68;33.02
57948;BME280;43754;56.992;24.292;2023-04-25T10:39:26;100236.94;;;23.12;32.17
57948;BME280;43754;56.992;24.292;2023-04-25T10:41:59;100234.69;;;23.59;31.81
57948;BME280;43754;56.992;24.292;2023-04-25T10:44:37;100238.28;;;23.39;31.06
57948;BME280;43754;56.992;24.292;2023-04-25T10:47:10;100245.41;;;22.85;31.49
57948;BME280;43754;56.992;24.292;2023-04-25T10:49:43;100240.72;;;22.50;31.14
57948;BME280;43754;56.992;24.292;2023-04-25T10:52:17;100240.00;;;22.02;31.45
57948;BME280;43754;56.992;24.292;2023-04-25T10:54:52;100236.88;;;22.41;31.68
57948;BME280;43754;56.992;24.292;2023-04-25T10:57:28;100235.31;;;22.90;31.89
57948;BME280;43754;56.992;24.292;2023-04-25T11:00:05;100230.88;;;23.35;31.12
57948;BME280;43754;56.992;24.292;2023-04-25T11:02:42;100220.38;;;23.88;30.71
57948;BME280;43754;56.992;24.292;2023-04-25T11:05:22;100229.13;;;23.84;30.38
57948;BME280;43754;56.992;24.292;2023-04-25T11:07:55;100222.16;;;23.33;30.20
57948;BME280;43754;56.992;24.292;2023-04-25T11:10:32;100233.66;;;22.84;30.51
57948;BME280;43754;56.992;24.292;2023-04-25T11:13:07;100239.03;;;22.39;31.77
57948;BME280;43754;56.992;24.292;2023-04-25T11:15:40;100230.84;;;22.39;31.68
57948;BME280;43754;56.992;24.292;2023-04-25T11:18:15;100222.06;;;22.17;32.02
57948;BME280;43754;56.992;24.292;2023-04-25T11:20:48;100220.94;;;22.18;32.38
57948;BME280;43754;56.992;24.292;2023-04-25T11:23:20;100217.91;;;21.99;32.02
57948;BME280;43754;56.992;24.292;2023-04-25T11:25:52;100229.03;;;21.92;32.77
57948;BME280;43754;56.992;24.292;2023-04-25T11:28:24;100232.22;;;21.79;33.27
57948;BME280;43754;56.992;24.292;2023-04-25T11:30:59;100228.28;;;21.55;33.12
57948;BME280;43754;56.992;24.292;2023-04-25T11:33:31;100231.63;;;21.25;34.67
57948;BME280;43754;56.992;24.292;2023-04-25T11:36:04;100232.22;;;21.27;35.39
57948;BME280;43754;56.992;24.292;2023-04-25T11:38:37;100222.69;;;21.30;36.75
57948;BME280;43754;56.992;24.292;2023-04-25T11:41:09;100229.44;;;21.22;36.16
57948;BME280;43754;56.992;24.292;2023-04-25T11:43:43;100216.06;;;21.16;35.67
57948;BME280;43754;56.992;24.292;2023-04-25T11:46:16;100217.22;;;21.25;36.75
57948;BME280;43754;56.992;24.292;2023-04-25T11:48:48;100223.16;;;21.22;35.38
57948;BME280;43754;56.992;24.292;2023-04-25T11:51:22;100219.28;;;21.13;34.85
57948;BME280;43754;56.992;24.292;2023-04-25T11:53:54;100212.06;;;20.96;34.34
57948;BME280;43754;56.992;24.292;2023-04-25T11:56:26;100212.91;;;21.02;34.51
57948;BME280;43754;56.992;24.292;2023-04-25T11:59:00;100211.69;;;21.15;34.92
57948;BME280;43754;56.992;24.292;2023-04-25T12:01:36;100210.66;;;21.26;34.85
57948;BME280;43754;56.992;24.292;2023-04-25T12:04:12;100201.41;;;21.27;34.36
57948;BME280;43754;56.992;24.292;2023-04-25T12:06:46;100209.88;;;21.30;34.83
57948;BME280;43754;56.992;24.292;2023-04-25T12:09:28;100205.81;;;21.38;35.63
57948;BME280;43754;56.992;24.292;2023-04-25T12:12:01;100214.22;;;21.83;34.32
57948;BME280;43754;56.992;24.292;2023-04-25T12:14:37;100200.69;;;21.93;35.80
57948;BME280;43754;56.992;24.292;2023-04-25T12:17:11;100206.34;;;21.82;37.34
57948;BME280;43754;56.992;24.292;2023-04-25T12:19:43;100207.97;;;21.31;38.01
57948;BME280;43754;56.992;24.292;2023-04-25T12:22:19;100211.72;;;20.88;36.74
57948;BME280;43754;56.992;24.292;2023-04-25T12:24:53;100212.47;;;20.51;36.42
57948;BME280;43754;56.992;24.292;2023-04-25T12:27:26;100217.03;;;20.41;36.05
57948;BME280;43754;56.992;24.292;2023-04-25T12:29:59;100221.41;;;20.20;34.35
57948;BME280;43754;56.992;24.292;2023-04-25T12:32:33;100214.09;;;20.04;33.78
57948;BME280;43754;56.992;24.292;2023-04-25T12:35:06;100212.03;;;20.11;34.95
57948;BME280;43754;56.992;24.292;2023-04-25T12:37:38;100214.94;;;20.04;36.03
57948;BME280;43754;56.992;24.292;2023-04-25T12:40:11;100209.25;;;20.06;35.28
57948;BME280;43754;56.992;24.292;2023-04-25T12:42:43;100221.97;;;20.00;38.12
57948;BME280;43754;56.992;24.292;2023-04-25T12:45:15;100226.69;;;19.66;43.09
57948;BME280;43754;56.992;24.292;2023-04-25T12:47:48;100219.81;;;19.42;39.20
57948;BME280;43754;56.992;24.292;2023-04-25T12:50:20;100222.13;;;19.50;39.83
57948;BME280;43754;56.992;24.292;2023-04-25T12:52:52;100220.09;;;19.41;38.93
57948;BME280;43754;56.992;24.292;2023-04-25T12:55:24;100220.16;;;19.46;39.14
57948;BME280;43754;56.992;24.292;2023-04-25T12:57:56;100201.47;;;19.71;39.15
57948;BME280;43754;56.992;24.292;2023-04-25T13:00:28;100199.06;;;19.96;37.78
57948;BME280;43754;56.992;24.292;2023-04-25T13:03:02;100186.03;;;20.20;38.22
57948;BME280;43754;56.992;24.292;2023-04-25T13:05:35;100187.09;;;20.46;37.32
57948;BME280;43754;56.992;24.292;2023-04-25T13:08:07;100172.06;;;20.38;37.50
57948;BME280;43754;56.992;24.292;2023-04-25T13:10:39;100187.41;;;20.23;37.20
57948;BME280;43754;56.992;24.292;2023-04-25T13:13:11;100203.81;;;20.06;40.56
57948;BME280;43754;56.992;24.292;2023-04-25T13:15:43;100210.66;;;19.87;38.22
57948;BME280;43754;56.992;24.292;2023-04-25T13:18:17;100208.13;;;19.80;39.42
57948;BME280;43754;56.992;24.292;2023-04-25T13:20:50;100212.63;;;19.91;38.91
57948;BME280;43754;56.992;24.292;2023-04-25T13:23:25;100214.16;;;19.82;39.45
57948;BME280;43754;56.992;24.292;2023-04-25T13:25:57;100217.09;;;19.59;39.35